sensor_id;sensor_type;location;lat;lon;timestamp;pressure;altitude;pressure_sealevel;temperature;humidity
46942;BME280;32676;52.630;4.896;2022-07-04T00:00:50;99689.72;;;15.90;75.39
46942;BME280;32676;52.630;4.896;2022-07-04T00:03:17;99701.03;;;15.92;75.44
46942;BME280;32676;52.630;4.896;2022-07-04T00:05:45;99686.19;;;15.89;75.51
46942;BME280;32676;52.630;4.896;2022-07-04T00:08:11;99674.97;;;15.86;75.43
46942;BME280;32676;52.630;4.896;2022-07-04T00:10:37;99671.59;;;15.84;76.02
46942;BME280;32676;52.630;4.896;2022-07-04T00:13:04;99664.63;;;15.83;75.71
46942;BME280;32676;52.630;4.896;2022-07-04T00:15:31;99663.88;;;15.81;75.93
46942;BME280;32676;52.630;4.896;2022-07-04T00:17:58;99676.06;;;15.83;75.72
46942;BME280;32676;52.630;4.896;2022-07-04T00:20:24;99676.91;;;15.84;75.83
46942;BME280;32676;52.630;4.896;2022-07-04T00:22:52;99672.78;;;15.80;75.98
46942;BME280;32676;52.630;4.896;2022-07-04T00:25:18;99674.47;;;15.81;75.86
46942;BME280;32676;52.630;4.896;2022-07-04T00:27:45;99668.44;;;15.79;75.95
46942;BME280;32676;52.630;4.896;2022-07-04T00:30:12;99665.06;;;15.77;75.85
46942;BME280;32676;52.630;4.896;2022-07-04T00:32:38;99664.31;;;15.74;76.04
46942;BME280;32676;52.630;4.896;2022-07-04T00:35:05;99643.47;;;15.70;76.06
46942;BME280;32676;52.630;4.896;2022-07-04T00:37:32;99634.88;;;15.66;76.33
46942;BME280;32676;52.630;4.896;2022-07-04T00:40:00;99620.16;;;15.62;76.24
46942;BME280;32676;52.630;4.896;2022-07-04T00:42:26;99609.81;;;15.59;76.36
46942;BME280;32676;52.630;4.896;2022-07-04T00:44:53;99606.41;;;15.57;76.59
46942;BME280;32676;52.630;4.896;2022-07-04T00:47:19;99595.44;;;15.50;76.62
46942;BME280;32676;52.630;4.896;2022-07-04T00:49:46;99604.72;;;15.56;76.83
46942;BME280;32676;52.630;4.896;2022-07-04T00:52:13;99598.19;;;15.49;76.86
46942;BME280;32676;52.630;4.896;2022-07-04T00:54:40;99557.38;;;15.27;77.07
46942;BME280;32676;52.630;4.896;2022-07-04T00:57:08;99601.34;;;15.54;76.79
46942;BME280;32676;52.630;4.896;2022-07-04T00:59:35;99600.63;;;15.52;77.12
46942;BME280;32676;52.630;4.896;2022-07-04T01:02:01;99599.91;;;15.50;77.31
46942;BME280;32676;52.630;4.896;2022-07-04T01:04:28;99585.91;;;15.48;77.37
46942;BME280;32676;52.630;4.896;2022-07-04T01:06:55;99584.22;;;15.47;77.29
46942;BME280;32676;52.630;4.896;2022-07-04T01:09:21;99582.53;;;15.46;77.40
46942;BME280;32676;52.630;4.896;2022-07-04T01:11:49;99563.09;;;15.34;77.15
46942;BME280;32676;52.630;4.896;2022-07-04T01:14:17;99602.66;;;15.48;77.40
46942;BME280;32676;52.630;4.896;2022-07-04T01:16:43;99600.09;;;15.47;77.42
46942;BME280;32676;52.630;4.896;2022-07-04T01:19:09;99591.44;;;15.45;77.34
46942;BME280;32676;52.630;4.896;2022-07-04T01:21:38;99552.56;;;15.21;77.89
46942;BME280;32676;52.630;4.896;2022-07-04T01:24:05;99582.13;;;15.39;77.90
46942;BME280;32676;52.630;4.896;2022-07-04T01:26:31;99589.00;;;15.42;78.12
46942;BME280;32676;52.630;4.896;2022-07-04T01:28:58;99578.63;;;15.39;78.04
46942;BME280;32676;52.630;4.896;2022-07-04T01:31:24;99582.25;;;15.38;78.13
46942;BME280;32676;52.630;4.896;2022-07-04T01:33:51;99568.16;;;15.37;77.92
46942;BME280;32676;52.630;4.896;2022-07-04T01:36:17;99577.91;;;15.36;78.25
46942;BME280;32676;52.630;4.896;2022-07-04T01:38:45;99583.19;;;15.36;78.09
46942;BME280;32676;52.630;4.896;2022-07-04T01:41:11;99581.50;;;15.35;78.20
46942;BME280;32676;52.630;4.896;2022-07-04T01:43:38;99559.09;;;15.28;78.11
46942;BME280;32676;52.630;4.896;2022-07-04T01:46:04;99545.13;;;15.26;78.16
46942;BME280;32676;52.630;4.896;2022-07-04T01:48:31;99529.78;;;15.19;78.13
46942;BME280;32676;52.630;4.896;2022-07-04T01:50:57;99529.69;;;15.20;78.36
46942;BME280;32676;52.630;4.896;2022-07-04T01:53:24;99521.22;;;15.15;78.37
46942;BME280;32676;52.630;4.896;2022-07-04T01:55:52;99526.31;;;15.18;78.57
46942;BME280;32676;52.630;4.896;2022-07-04T01:58:18;99499.06;;;15.05;78.42
46942;BME280;32676;52.630;4.896;2022-07-04T02:00:45;99518.56;;;15.15;78.26
46942;BME280;32676;52.630;4.896;2022-07-04T02:03:29;99522.94;;;15.16;78.73
46942;BME280;32676;52.630;4.896;2022-07-04T02:05:55;99519.56;;;15.14;78.76
46942;BME280;32676;52.630;4.896;2022-07-04T02:08:21;99521.47;;;15.12;78.50
46942;BME280;32676;52.630;4.896;2022-07-04T02:10:48;99507.50;;;15.10;78.73
46942;BME280;32676;52.630;4.896;2022-07-04T02:13:16;99520.59;;;15.11;78.68
46942;BME280;32676;52.630;4.896;2022-07-04T02:15:41;99529.41;;;15.12;78.99
46942;BME280;32676;52.630;4.896;2022-07-04T02:18:10;99535.44;;;15.14;79.10
46942;BME280;32676;52.630;4.896;2022-07-04T02:20:37;99538.06;;;15.14;79.05
46942;BME280;32676;52.630;4.896;2022-07-04T02:23:04;99539.25;;;15.10;79.13
46942;BME280;32676;52.630;4.896;2022-07-04T02:25:32;99544.19;;;15.14;79.11
46942;BME280;32676;52.630;4.896;2022-07-04T02:27:58;99539.00;;;15.13;78.82
46942;BME280;32676;52.630;4.896;2022-07-04T02:30:26;99522.88;;;15.05;78.89
46942;BME280;32676;52.630;4.896;2022-07-04T02:32:53;99515.75;;;15.05;79.08
46942;BME280;32676;52.630;4.896;2022-07-04T02:35:19;99525.41;;;15.06;79.52
46942;BME280;32676;52.630;4.896;2022-07-04T02:37:46;99526.25;;;15.07;79.79
46942;BME280;32676;52.630;4.896;2022-07-04T02:40:12;99538.50;;;15.08;80.30
46942;BME280;32676;52.630;4.896;2022-07-04T02:42:39;99553.22;;;15.12;80.75
46942;BME280;32676;52.630;4.896;2022-07-04T02:45:07;99570.03;;;15.11;80.67
46942;BME280;32676;52.630;4.896;2022-07-04T02:47:34;99588.09;;;15.17;80.79
46942;BME280;32676;52.630;4.896;2022-07-04T02:50:01;99597.66;;;15.20;80.93
46942;BME280;32676;52.630;4.896;2022-07-04T02:52:28;99586.88;;;15.10;81.05
46942;BME280;32676;52.630;4.896;2022-07-04T02:54:55;99609.06;;;15.20;80.69
46942;BME280;32676;52.630;4.896;2022-07-04T02:57:21;99614.16;;;15.23;80.52
46942;BME280;32676;52.630;4.896;2022-07-04T02:59:48;99642.09;;;15.27;80.40
46942;BME280;32676;52.630;4.896;2022-07-04T03:02:15;99648.34;;;15.26;80.50
46942;BME280;32676;52.630;4.896;2022-07-04T03:04:43;99633.41;;;15.25;80.23
46942;BME280;32676;52.630;4.896;2022-07-04T03:07:10;99631.69;;;15.24;80.18
46942;BME280;32676;52.630;4.896;2022-07-04T03:09:37;99637.97;;;15.23;79.80
46942;BME280;32676;52.630;4.896;2022-07-04T03:12:04;99635.31;;;15.23;79.89
46942;BME280;32676;52.630;4.896;2022-07-04T03:14:31;99630.25;;;15.20;79.73
46942;BME280;32676;52.630;4.896;2022-07-04T03:16:57;99635.44;;;15.22;79.75
46942;BME280;32676;52.630;4.896;2022-07-04T03:19:24;99645.91;;;15.23;79.77
46942;BME280;32676;52.630;4.896;2022-07-04T03:21:51;99639.88;;;15.21;80.20
46942;BME280;32676;52.630;4.896;2022-07-04T03:24:18;99642.53;;;15.21;79.84
46942;BME280;32676;52.630;4.896;2022-07-04T03:26:44;99635.53;;;15.20;80.34
46942;BME280;32676;52.630;4.896;2022-07-04T03:29:11;99641.03;;;15.17;80.33
46942;BME280;32676;52.630;4.896;2022-07-04T03:31:37;99646.13;;;15.20;80.44
46942;BME280;32676;52.630;4.896;2022-07-04T03:34:04;99637.44;;;15.18;80.57
46942;BME280;32676;52.630;4.896;2022-07-04T03:36:30;99636.59;;;15.18;80.84
46942;BME280;32676;52.630;4.896;2022-07-04T03:38:58;99643.69;;;15.17;80.84
46942;BME280;32676;52.630;4.896;2022-07-04T03:41:24;99662.00;;;15.20;81.16
46942;BME280;32676;52.630;4.896;2022-07-04T03:43:51;99675.84;;;15.24;80.92
46942;BME280;32676;52.630;4.896;2022-07-04T03:46:17;99695.00;;;15.27;80.85
46942;BME280;32676;52.630;4.896;2022-07-04T03:48:44;99693.53;;;15.23;81.19
46942;BME280;32676;52.630;4.896;2022-07-04T03:51:11;99712.59;;;15.28;80.62
46942;BME280;32676;52.630;4.896;2022-07-04T03:53:37;99710.69;;;15.30;80.67
46942;BME280;32676;52.630;4.896;2022-07-04T03:56:05;99712.38;;;15.31;80.47
46942;BME280;32676;52.630;4.896;2022-07-04T03:58:33;99723.81;;;15.32;80.82
46942;BME280;32676;52.630;4.896;2022-07-04T04:01:00;99717.03;;;15.28;81.09
46942;BME280;32676;52.630;4.896;2022-07-04T04:03:26;99722.94;;;15.31;81.19
46942;BME280;32676;52.630;4.896;2022-07-04T04:06:25;99733.53;;;15.31;81.08
46942;BME280;32676;52.630;4.896;2022-07-04T04:08:51;99740.53;;;15.32;81.44
46942;BME280;32676;52.630;4.896;2022-07-04T04:11:19;99746.03;;;15.29;81.58
46942;BME280;32676;52.630;4.896;2022-07-04T04:13:45;99757.91;;;15.36;81.92
46942;BME280;32676;52.630;4.896;2022-07-04T04:16:12;99758.34;;;15.30;81.69
46942;BME280;32676;52.630;4.896;2022-07-04T04:18:39;99771.88;;;15.39;82.16
46942;BME280;32676;52.630;4.896;2022-07-04T04:21:06;99775.69;;;15.34;81.97
46942;BME280;32676;52.630;4.896;2022-07-04T04:23:32;99791.38;;;15.38;82.10
46942;BME280;32676;52.630;4.896;2022-07-04T04:25:59;99825.88;;;15.49;82.13
46942;BME280;32676;52.630;4.896;2022-07-04T04:28:27;99865.91;;;15.57;82.06
46942;BME280;32676;52.630;4.896;2022-07-04T04:30:54;99926.72;;;15.71;82.05
46942;BME280;32676;52.630;4.896;2022-07-04T04:33:20;99976.25;;;15.84;81.72
46942;BME280;32676;52.630;4.896;2022-07-04T04:35:47;100058.13;;;16.01;81.64
46942;BME280;32676;52.630;4.896;2022-07-04T04:38:13;100136.59;;;16.17;81.04
46942;BME280;32676;52.630;4.896;2022-07-04T04:40:40;100183.34;;;16.18;81.08
46942;BME280;32676;52.630;4.896;2022-07-04T04:43:06;100254.06;;;16.44;80.53
46942;BME280;32676;52.630;4.896;2022-07-04T04:45:34;100297.69;;;16.53;80.16
46942;BME280;32676;52.630;4.896;2022-07-04T04:48:00;100342.41;;;16.59;80.12
46942;BME280;32676;52.630;4.896;2022-07-04T04:50:27;100437.31;;;16.83;79.66
46942;BME280;32676;52.630;4.896;2022-07-04T04:52:53;100499.91;;;17.00;79.75
46942;BME280;32676;52.630;4.896;2022-07-04T04:55:20;100505.03;;;17.03;79.10
46942;BME280;32676;52.630;4.896;2022-07-04T04:57:47;100535.63;;;17.08;79.33
46942;BME280;32676;52.630;4.896;2022-07-04T05:00:14;100599.41;;;17.21;78.88
46942;BME280;32676;52.630;4.896;2022-07-04T05:02:41;100665.78;;;17.36;78.75
46942;BME280;32676;52.630;4.896;2022-07-04T05:05:08;100723.34;;;17.50;78.38
46942;BME280;32676;52.630;4.896;2022-07-04T05:07:35;100781.88;;;17.62;77.90
46942;BME280;32676;52.630;4.896;2022-07-04T05:10:02;100831.59;;;17.75;77.90
46942;BME280;32676;52.630;4.896;2022-07-04T05:12:28;100881.63;;;17.82;77.50
46942;BME280;32676;52.630;4.896;2022-07-04T05:14:55;100940.06;;;17.98;77.50
46942;BME280;32676;52.630;4.896;2022-07-04T05:17:21;101006.56;;;18.13;76.73
46942;BME280;32676;52.630;4.896;2022-07-04T05:19:49;101070.50;;;18.26;76.31
46942;BME280;32676;52.630;4.896;2022-07-04T05:22:16;101119.34;;;18.39;75.93
46942;BME280;32676;52.630;4.896;2022-07-04T05:24:43;101174.56;;;18.50;75.43
46942;BME280;32676;52.630;4.896;2022-07-04T05:27:09;101230.72;;;18.61;74.82
46942;BME280;32676;52.630;4.896;2022-07-04T05:29:36;101239.47;;;18.63;74.17
46942;BME280;32676;52.630;4.896;2022-07-04T05:32:03;101267.44;;;18.70;73.72
46942;BME280;32676;52.630;4.896;2022-07-04T05:34:30;101315.59;;;18.82;73.43
46942;BME280;32676;52.630;4.896;2022-07-04T05:36:57;101383.91;;;18.97;73.21
46942;BME280;32676;52.630;4.896;2022-07-04T05:39:24;101441.81;;;19.09;72.71
46942;BME280;32676;52.630;4.896;2022-07-04T05:41:50;101480.38;;;19.18;72.42
46942;BME280;32676;52.630;4.896;2022-07-04T05:44:17;101522.47;;;19.27;71.65
46942;BME280;32676;52.630;4.896;2022-07-04T05:46:43;101562.78;;;19.37;71.46
46942;BME280;32676;52.630;4.896;2022-07-04T05:49:10;101539.16;;;19.31;71.14
46942;BME280;32676;52.630;4.896;2022-07-04T05:51:36;101498.94;;;19.20;70.67
46942;BME280;32676;52.630;4.896;2022-07-04T05:54:04;101500.66;;;19.21;70.71
46942;BME280;32676;52.630;4.896;2022-07-04T05:56:30;101528.66;;;19.28;70.94
46942;BME280;32676;52.630;4.896;2022-07-04T05:58:57;101562.84;;;19.35;71.25
46942;BME280;32676;52.630;4.896;2022-07-04T06:01:23;101590.03;;;19.42;70.99
46942;BME280;32676;52.630;4.896;2022-07-04T06:03:50;101617.19;;;19.49;70.87
46942;BME280;32676;52.630;4.896;2022-07-04T06:06:17;101677.91;;;19.60;71.01
46942;BME280;32676;52.630;4.896;2022-07-04T06:08:43;101727.09;;;19.70;70.40
46942;BME280;32676;52.630;4.896;2022-07-04T06:11:11;101765.66;;;19.80;69.26
46942;BME280;32676;52.630;4.896;2022-07-04T06:13:37;101818.16;;;19.96;69.20
46942;BME280;32676;52.630;4.896;2022-07-04T06:16:04;101862.03;;;20.06;68.89
46942;BME280;32676;52.630;4.896;2022-07-04T06:18:30;101890.19;;;20.11;67.94
46942;BME280;32676;52.630;4.896;2022-07-04T06:20:57;101923.59;;;20.19;66.87
46942;BME280;32676;52.630;4.896;2022-07-04T06:23:23;101951.75;;;20.24;66.10
46942;BME280;32676;52.630;4.896;2022-07-04T06:25:50;101987.00;;;20.31;66.15
46942;BME280;32676;52.630;4.896;2022-07-04T06:28:17;102022.94;;;20.41;65.99
46942;BME280;32676;52.630;4.896;2022-07-04T06:30:44;102046.69;;;20.46;65.70
46942;BME280;32676;52.630;4.896;2022-07-04T06:33:10;102080.97;;;20.53;65.45
46942;BME280;32676;52.630;4.896;2022-07-04T06:35:37;102103.78;;;20.61;64.86
46942;BME280;32676;52.630;4.896;2022-07-04T06:38:14;102123.94;;;20.66;63.80
46942;BME280;32676;52.630;4.896;2022-07-04T06:40:41;102152.25;;;20.70;62.73
46942;BME280;32676;52.630;4.896;2022-07-04T06:43:08;102156.53;;;20.73;62.98
46942;BME280;32676;52.630;4.896;2022-07-04T06:45:36;102163.63;;;20.74;63.00
46942;BME280;32676;52.630;4.896;2022-07-04T06:48:04;102209.31;;;20.85;63.05
46942;BME280;32676;52.630;4.896;2022-07-04T06:50:31;102289.34;;;21.04;62.98
46942;BME280;32676;52.630;4.896;2022-07-04T06:52:58;102310.75;;;21.04;63.10
46942;BME280;32676;52.630;4.896;2022-07-04T06:55:24;102292.13;;;21.03;62.73
46942;BME280;32676;52.630;4.896;2022-07-04T06:57:51;102264.72;;;20.99;62.73
46942;BME280;32676;52.630;4.896;2022-07-04T07:00:17;102289.34;;;21.04;61.73
46942;BME280;32676;52.630;4.896;2022-07-04T07:02:45;102318.28;;;21.14;61.69
46942;BME280;32676;52.630;4.896;2022-07-04T07:05:12;102389.66;;;21.29;61.35
46942;BME280;32676;52.630;4.896;2022-07-04T07:07:38;102454.84;;;21.44;60.71
46942;BME280;32676;52.630;4.896;2022-07-04T07:10:06;102488.31;;;21.53;60.31
46942;BME280;32676;52.630;4.896;2022-07-04T07:12:33;102514.72;;;21.59;59.62
46942;BME280;32676;52.630;4.896;2022-07-04T07:15:00;102564.16;;;21.69;59.36
46942;BME280;32676;52.630;4.896;2022-07-04T07:17:28;102615.16;;;21.83;59.32
46942;BME280;32676;52.630;4.896;2022-07-04T07:19:56;102698.22;;;21.99;58.03
46942;BME280;32676;52.630;4.896;2022-07-04T07:22:22;102694.50;;;22.02;57.48
46942;BME280;32676;52.630;4.896;2022-07-04T07:24:49;102697.19;;;22.02;57.25
46942;BME280;32676;52.630;4.896;2022-07-04T07:27:15;102728.06;;;22.09;56.36
46942;BME280;32676;52.630;4.896;2022-07-04T07:29:42;102806.56;;;22.29;56.94
46942;BME280;32676;52.630;4.896;2022-07-04T07:32:08;102879.84;;;22.45;56.79
46942;BME280;32676;52.630;4.896;2022-07-04T07:34:35;102872.69;;;22.46;55.44
46942;BME280;32676;52.630;4.896;2022-07-04T07:37:03;102880.66;;;22.47;53.91
46942;BME280;32676;52.630;4.896;2022-07-04T07:39:29;102885.03;;;22.48;53.43
46942;BME280;32676;52.630;4.896;2022-07-04T07:41:56;102867.25;;;22.47;53.54
46942;BME280;32676;52.630;4.896;2022-07-04T07:44:24;102898.16;;;22.54;53.89
46942;BME280;32676;52.630;4.896;2022-07-04T07:46:50;102982.84;;;22.76;54.73
46942;BME280;32676;52.630;4.896;2022-07-04T07:49:17;102981.09;;;22.75;53.65
46942;BME280;32676;52.630;4.896;2022-07-04T07:51:43;102951.13;;;22.67;52.51
46942;BME280;32676;52.630;4.896;2022-07-04T07:54:11;102954.53;;;22.70;51.93
46942;BME280;32676;52.630;4.896;2022-07-04T07:56:39;102992.47;;;22.80;51.36
46942;BME280;32676;52.630;4.896;2022-07-04T07:59:05;103046.28;;;22.94;51.85
46942;BME280;32676;52.630;4.896;2022-07-04T08:01:31;103071.06;;;22.99;51.85
46942;BME280;32676;52.630;4.896;2022-07-04T08:03:58;103051.47;;;22.97;51.55
46942;BME280;32676;52.630;4.896;2022-07-04T08:06:42;103033.72;;;22.95;51.09
46942;BME280;32676;52.630;4.896;2022-07-04T08:09:10;103039.81;;;22.98;51.43
46942;BME280;32676;52.630;4.896;2022-07-04T08:11:39;103084.03;;;23.09;51.01
46942;BME280;32676;52.630;4.896;2022-07-04T08:14:06;103063.66;;;23.05;51.79
46942;BME280;32676;52.630;4.896;2022-07-04T08:16:32;103037.06;;;23.00;52.01
46942;BME280;32676;52.630;4.896;2022-07-04T08:18:59;103064.47;;;23.07;51.74
46942;BME280;32676;52.630;4.896;2022-07-04T08:21:26;103100.66;;;23.15;51.82
46942;BME280;32676;52.630;4.896;2022-07-04T08:23:53;103098.88;;;23.16;51.98
46942;BME280;32676;52.630;4.896;2022-07-04T08:26:21;103112.13;;;23.19;52.36
46942;BME280;32676;52.630;4.896;2022-07-04T08:28:48;103104.97;;;23.19;51.95
46942;BME280;32676;52.630;4.896;2022-07-04T08:31:16;103135.00;;;23.26;51.54
46942;BME280;32676;52.630;4.896;2022-07-04T08:33:43;103128.72;;;23.27;52.24
46942;BME280;32676;52.630;4.896;2022-07-04T08:36:09;103145.75;;;23.26;51.62
46942;BME280;32676;52.630;4.896;2022-07-04T08:38:35;103143.72;;;23.31;52.28
46942;BME280;32676;52.630;4.896;2022-07-04T08:41:02;103134.00;;;23.29;51.94
46942;BME280;32676;52.630;4.896;2022-07-04T08:43:31;103181.69;;;23.41;51.30
46942;BME280;32676;52.630;4.896;2022-07-04T08:46:03;103217.94;;;23.50;50.42
46942;BME280;32676;52.630;4.896;2022-07-04T08:48:31;103148.75;;;23.37;48.67
46942;BME280;32676;52.630;4.896;2022-07-04T08:51:04;103156.75;;;23.39;50.19
46942;BME280;32676;52.630;4.896;2022-07-04T08:53:37;103100.06;;;23.28;50.37
46942;BME280;32676;52.630;4.896;2022-07-04T08:56:05;103022.28;;;23.10;50.73
46942;BME280;32676;52.630;4.896;2022-07-04T08:58:52;103067.16;;;23.24;51.22
46942;BME280;32676;52.630;4.896;2022-07-04T09:01:21;103122.81;;;23.38;50.23
46942;BME280;32676;52.630;4.896;2022-07-04T09:03:49;103182.13;;;23.51;50.80
46942;BME280;32676;52.630;4.896;2022-07-04T09:06:19;103236.13;;;23.62;50.07
46942;BME280;32676;52.630;4.896;2022-07-04T09:08:46;103250.13;;;23.69;48.46
46942;BME280;32676;52.630;4.896;2022-07-04T09:11:12;103251.84;;;23.70;47.51
46942;BME280;32676;52.630;4.896;2022-07-04T09:13:39;103203.13;;;23.60;47.17
46942;BME280;32676;52.630;4.896;2022-07-04T09:16:07;103136.72;;;23.46;46.71
46942;BME280;32676;52.630;4.896;2022-07-04T09:18:35;103121.63;;;23.44;46.54
46942;BME280;32676;52.630;4.896;2022-07-04T09:21:03;103076.50;;;23.34;46.47
46942;BME280;32676;52.630;4.896;2022-07-04T09:23:32;103071.13;;;23.34;46.32
46942;BME280;32676;52.630;4.896;2022-07-04T09:26:10;103077.22;;;23.38;46.39
46942;BME280;32676;52.630;4.896;2022-07-04T09:28:39;103066.53;;;23.36;46.66
46942;BME280;32676;52.630;4.896;2022-07-04T09:31:18;103054.06;;;23.35;46.90
46942;BME280;32676;52.630;4.896;2022-07-04T09:33:47;103092.97;;;23.44;47.47
46942;BME280;32676;52.630;4.896;2022-07-04T09:36:16;103075.31;;;23.40;46.73
46942;BME280;32676;52.630;4.896;2022-07-04T09:38:43;103052.16;;;23.37;46.61
46942;BME280;32676;52.630;4.896;2022-07-04T09:41:10;103076.94;;;23.43;47.14
46942;BME280;32676;52.630;4.896;2022-07-04T09:43:59;103057.38;;;23.41;46.57
46942;BME280;32676;52.630;4.896;2022-07-04T09:46:27;103018.41;;;23.33;46.13
46942;BME280;32676;52.630;4.896;2022-07-04T09:48:54;103053.75;;;23.42;46.52
46942;BME280;32676;52.630;4.896;2022-07-04T09:51:37;102985.56;;;23.28;45.17
46942;BME280;32676;52.630;4.896;2022-07-04T09:54:15;102882.22;;;23.04;44.89
46942;BME280;32676;52.630;4.896;2022-07-04T09:56:43;102881.28;;;23.05;45.38
46942;BME280;32676;52.630;4.896;2022-07-04T09:59:09;102911.28;;;23.13;45.91
46942;BME280;32676;52.630;4.896;2022-07-04T10:01:38;102876.16;;;23.00;44.61
46942;BME280;32676;52.630;4.896;2022-07-04T10:04:05;102889.19;;;23.08;44.71
46942;BME280;32676;52.630;4.896;2022-07-04T10:06:33;102897.84;;;23.13;44.39
46942;BME280;32676;52.630;4.896;2022-07-04T10:09:07;102915.53;;;23.17;45.20
46942;BME280;32676;52.630;4.896;2022-07-04T10:11:34;102914.66;;;23.16;45.65
46942;BME280;32676;52.630;4.896;2022-07-04T10:14:04;102925.13;;;23.21;45.46
46942;BME280;32676;52.630;4.896;2022-07-04T10:16:31;102917.09;;;23.21;44.66
46942;BME280;32676;52.630;4.896;2022-07-04T10:18:59;102886.09;;;23.15;44.52
46942;BME280;32676;52.630;4.896;2022-07-04T10:21:26;102848.97;;;23.08;44.45
46942;BME280;32676;52.630;4.896;2022-07-04T10:23:52;102848.03;;;23.09;44.64
46942;BME280;32676;52.630;4.896;2022-07-04T10:26:19;102856.84;;;23.11;44.79
46942;BME280;32676;52.630;4.896;2022-07-04T10:28:46;102872.75;;;23.14;44.65
46942;BME280;32676;52.630;4.896;2022-07-04T10:31:15;102863.78;;;23.15;43.79
46942;BME280;32676;52.630;4.896;2022-07-04T10:33:42;102894.69;;;23.22;44.64
46942;BME280;32676;52.630;4.896;2022-07-04T10:36:16;102892.94;;;23.21;44.14
46942;BME280;32676;52.630;4.896;2022-07-04T10:38:47;102842.47;;;23.12;44.68
46942;BME280;32676;52.630;4.896;2022-07-04T10:41:13;102839.00;;;23.10;45.32
46942;BME280;32676;52.630;4.896;2022-07-04T10:43:51;102851.22;;;23.15;46.01
46942;BME280;32676;52.630;4.896;2022-07-04T10:46:46;102872.44;;;23.20;45.67
46942;BME280;32676;52.630;4.896;2022-07-04T10:49:21;102885.59;;;23.25;45.69
46942;BME280;32676;52.630;4.896;2022-07-04T10:51:51;102872.28;;;23.23;45.52
46942;BME280;32676;52.630;4.896;2022-07-04T10:54:19;102872.44;;;23.20;44.71
46942;BME280;32676;52.630;4.896;2022-07-04T10:56:48;102845.78;;;23.17;44.38
46942;BME280;32676;52.630;4.896;2022-07-04T10:59:17;102810.28;;;23.12;45.23
46942;BME280;32676;52.630;4.896;2022-07-04T11:01:46;102854.44;;;23.22;46.20
46942;BME280;32676;52.630;4.896;2022-07-04T11:04:13;102879.22;;;23.27;45.14
46942;BME280;32676;52.630;4.896;2022-07-04T11:06:53;102896.03;;;23.31;46.01
46942;BME280;32676;52.630;4.896;2022-07-04T11:09:21;102905.63;;;23.35;45.59
46942;BME280;32676;52.630;4.896;2022-07-04T11:11:50;102944.53;;;23.44;44.32
46942;BME280;32676;52.630;4.896;2022-07-04T11:14:37;102962.19;;;23.48;44.67
46942;BME280;32676;52.630;4.896;2022-07-04T11:17:05;102944.38;;;23.47;43.80
46942;BME280;32676;52.630;4.896;2022-07-04T11:19:32;102942.63;;;23.46;42.88
46942;BME280;32676;52.630;4.896;2022-07-04T11:22:00;102919.59;;;23.42;44.16
46942;BME280;32676;52.630;4.896;2022-07-04T11:24:27;102893.97;;;23.36;43.79
46942;BME280;32676;52.630;4.896;2022-07-04T11:26:54;102803.66;;;23.19;44.03
46942;BME280;32676;52.630;4.896;2022-07-04T11:29:20;102804.59;;;23.18;44.79
46942;BME280;32676;52.630;4.896;2022-07-04T11:31:49;102783.31;;;23.15;44.51
46942;BME280;32676;52.630;4.896;2022-07-04T11:34:16;102788.69;;;23.15;44.39
46942;BME280;32676;52.630;4.896;2022-07-04T11:36:43;102785.91;;;23.16;44.00
46942;BME280;32676;52.630;4.896;2022-07-04T11:39:14;102702.88;;;22.97;42.82
46942;BME280;32676;52.630;4.896;2022-07-04T11:41:45;102708.06;;;23.00;43.76
46942;BME280;32676;52.630;4.896;2022-07-04T11:44:31;102701.94;;;22.98;44.75
46942;BME280;32676;52.630;4.896;2022-07-04T11:47:17;102701.78;;;23.02;44.19
46942;BME280;32676;52.630;4.896;2022-07-04T11:49:46;102719.44;;;23.06;44.57
46942;BME280;32676;52.630;4.896;2022-07-04T11:52:14;102738.00;;;23.10;43.92
46942;BME280;32676;52.630;4.896;2022-07-04T11:54:43;102745.91;;;23.12;42.67
46942;BME280;32676;52.630;4.896;2022-07-04T11:57:15;102764.44;;;23.16;43.07
46942;BME280;32676;52.630;4.896;2022-07-04T11:59:42;102775.88;;;23.20;43.58
46942;BME280;32676;52.630;4.896;2022-07-04T12:02:12;102820.97;;;23.29;43.74
46942;BME280;32676;52.630;4.896;2022-07-04T12:04:40;102814.84;;;23.27;42.69
46942;BME280;32676;52.630;4.896;2022-07-04T12:07:11;102793.38;;;23.27;42.13
46942;BME280;32676;52.630;4.896;2022-07-04T12:09:38;102777.59;;;23.21;42.55
46942;BME280;32676;52.630;4.896;2022-07-04T12:12:07;102762.38;;;23.22;41.67
46942;BME280;32676;52.630;4.896;2022-07-04T12:14:33;102763.25;;;23.22;41.82
46942;BME280;32676;52.630;4.896;2022-07-04T12:17:11;102714.88;;;23.08;42.09
46942;BME280;32676;52.630;4.896;2022-07-04T12:19:49;102691.59;;;23.08;43.87
46942;BME280;32676;52.630;4.896;2022-07-04T12:22:27;102673.06;;;23.04;43.97
46942;BME280;32676;52.630;4.896;2022-07-04T12:24:55;102689.00;;;23.07;44.00
46942;BME280;32676;52.630;4.896;2022-07-04T12:27:23;102688.81;;;23.10;44.40
46942;BME280;32676;52.630;4.896;2022-07-04T12:29:51;102709.16;;;23.14;44.58
46942;BME280;32676;52.630;4.896;2022-07-04T12:32:19;102708.22;;;23.15;44.02
46942;BME280;32676;52.630;4.896;2022-07-04T12:34:46;102685.19;;;23.11;43.24
46942;BME280;32676;52.630;4.896;2022-07-04T12:37:14;102692.28;;;23.12;43.66
46942;BME280;32676;52.630;4.896;2022-07-04T12:39:42;102707.34;;;23.14;43.16
46942;BME280;32676;52.630;4.896;2022-07-04T12:42:11;102688.81;;;23.10;44.13
46942;BME280;32676;52.630;4.896;2022-07-04T12:44:40;102686.06;;;23.11;43.78
46942;BME280;32676;52.630;4.896;2022-07-04T12:47:07;102656.84;;;23.07;43.29
46942;BME280;32676;52.630;4.896;2022-07-04T12:49:34;102607.31;;;22.96;43.51
46942;BME280;32676;52.630;4.896;2022-07-04T12:52:06;102612.69;;;22.96;44.25
46942;BME280;32676;52.630;4.896;2022-07-04T12:54:33;102610.78;;;22.98;44.55
46942;BME280;32676;52.630;4.896;2022-07-04T12:57:05;102593.13;;;22.94;44.45